^^
Peaceful Hills Weather Station Historical Data
 
Daily Summary for May 06, 2021 Units:  Both    English   Metric
Daily Weekly Monthly Yearly
  High: Low: Average:
Temperature: 80.6 °F /  27 °C 48.7 °F /  9.3 °C 63 °F /  17.2 °C
Dew Point: 57.4 °F /  14.1 °C 44.2 °F /  6.8 °C 50.2 °F /  10.1 °C
Humidity: 92% 28.2% 69%
Wind Speed: 9mph /  14.5km/h - 2.3mph /  3.7km/h
Wind Gust: 21mph /  33.8km/h - -
Wind- - WSW
Pressure: 30.23 in /  1023.6 hPa 30.09 in /  1018.8 hPa -
Precipitation: 0.00 in /  0 mm    
 
 
Tabular Data for May 06, 2021
Time Temperature Dew Point Pressure Wind Wind Speed Wind Gust Humidity Rainfall Rate (Hourly)
00:04 53.1 °F /  11.7 °C 49.9 °F /  9.9 °C 30.16in /  1021.2hPa Calm     89% 0.00in /  0mm
00:09 52.9 °F /  11.6 °C 50 °F /  10 °C 30.16in /  1021.2hPa Calm     90% 0.00in /  0mm
00:14 52.8 °F /  11.6 °C 49.9 °F /  9.9 °C 30.17in /  1021.6hPa Calm     90% 0.00in /  0mm
00:19 52.8 °F /  11.6 °C 49.9 °F /  9.9 °C 30.17in /  1021.6hPa Calm     90% 0.00in /  0mm
00:24 52.6 °F /  11.4 °C 49.8 °F /  9.9 °C 30.17in /  1021.6hPa Calm     90% 0.00in /  0mm
00:29 52.6 °F /  11.4 °C 49.8 °F /  9.9 °C 30.17in /  1021.6hPa Calm     90% 0.00in /  0mm
00:34 52.6 °F /  11.4 °C 49.8 °F /  9.9 °C 30.18in /  1021.9hPa Calm     90% 0.00in /  0mm
00:39 52.5 °F /  11.4 °C 49.7 °F /  9.8 °C 30.18in /  1021.9hPa Calm     90% 0.00in /  0mm
00:44 52.5 °F /  11.4 °C 49.7 °F /  9.8 °C 30.18in /  1021.9hPa Calm     90% 0.00in /  0mm
00:49 52.4 °F /  11.3 °C 49.8 °F /  9.9 °C 30.18in /  1021.9hPa Calm     91% 0.00in /  0mm
00:54 52.4 °F /  11.3 °C 49.7 °F /  9.8 °C 30.18in /  1021.9hPa Calm     90.4% 0.00in /  0mm
00:59 52.4 °F /  11.3 °C 49.6 °F /  9.8 °C 30.18in /  1021.9hPa Calm     90.2% 0.00in /  0mm
01:04 52.4 °F /  11.3 °C 49.7 °F /  9.8 °C 30.18in /  1021.9hPa Calm     90.6% 0.00in /  0mm
01:09 52.3 °F /  11.3 °C 49.6 °F /  9.8 °C 30.18in /  1021.9hPa Calm     90.4% 0.00in /  0mm
01:14 52.3 °F /  11.3 °C 49.8 °F /  9.9 °C 30.18in /  1021.9hPa Calm     91% 0.00in /  0mm
01:18 52.2 °F /  11.2 °C 49.7 °F /  9.8 °C 30.18in /  1021.9hPa Calm     90.8% 0.00in /  0mm
01:44 51.7 °F /  10.9 °C 49.2 °F /  9.6 °C 30.18in /  1021.9hPa Calm     91% 0.00in /  0mm
01:49 51.5 °F /  10.8 °C 49 °F /  9.4 °C 30.18in /  1021.9hPa Calm     91% 0.00in /  0mm
01:54 51.4 °F /  10.8 °C 48.9 °F /  9.4 °C 30.18in /  1021.9hPa Calm     91% 0.00in /  0mm
01:59 51.3 °F /  10.7 °C 48.8 °F /  9.3 °C 30.19in /  1022.2hPa Calm     91% 0.00in /  0mm
02:04 51.2 °F /  10.7 °C 48.7 °F /  9.3 °C 30.19in /  1022.2hPa Calm     91% 0.00in /  0mm
02:09 51 °F /  10.6 °C 48.5 °F /  9.2 °C 30.19in /  1022.2hPa Calm     91% 0.00in /  0mm
02:14 50.9 °F /  10.5 °C 48.4 °F /  9.1 °C 30.19in /  1022.2hPa Calm     91% 0.00in /  0mm
02:19 50.8 °F /  10.4 °C 48.3 °F /  9.1 °C 30.18in /  1021.9hPa Calm     91% 0.00in /  0mm
02:24 50.8 °F /  10.4 °C 48.3 °F /  9.1 °C 30.18in /  1021.9hPa Calm     91% 0.00in /  0mm
02:29 50.8 °F /  10.4 °C 48.3 °F /  9.1 °C 30.17in /  1021.6hPa Calm     91% 0.00in /  0mm
02:34 50.8 °F /  10.4 °C 48.3 °F /  9.1 °C 30.17in /  1021.6hPa Calm     91% 0.00in /  0mm
02:39 50.8 °F /  10.4 °C 48.3 °F /  9.1 °C 30.16in /  1021.2hPa Calm     91% 0.00in /  0mm
02:44 50.8 °F /  10.4 °C 48.3 °F /  9.1 °C 30.15in /  1020.9hPa Calm     91% 0.00in /  0mm
02:49 50.8 °F /  10.4 °C 48.3 °F /  9.1 °C 30.15in /  1020.9hPa Calm     91% 0.00in /  0mm
02:54 50.7 °F /  10.4 °C 48.2 °F /  9 °C 30.15in /  1020.9hPa Calm     91% 0.00in /  0mm
03:04 50.5 °F /  10.3 °C 48 °F /  8.9 °C 30.15in /  1020.9hPa Calm     91% 0.00in /  0mm
03:09 50.4 °F /  10.2 °C 47.9 °F /  8.8 °C 30.15in /  1020.9hPa Calm     91% 0.00in /  0mm
03:14 50.3 °F /  10.2 °C 47.8 °F /  8.8 °C 30.15in /  1020.9hPa Calm     91% 0.00in /  0mm
03:19 50.2 °F /  10.1 °C 47.7 °F /  8.7 °C 30.15in /  1020.9hPa Calm     91% 0.00in /  0mm
03:24 50.1 °F /  10.1 °C 47.6 °F /  8.7 °C 30.15in /  1020.9hPa Calm     91% 0.00in /  0mm
03:29 50.3 °F /  10.2 °C 47.8 °F /  8.8 °C 30.15in /  1020.9hPa NNW 1.2mph /  1.9km/h 4mph /  6.4km/h 91% 0.00in /  0mm
03:34 50.3 °F /  10.2 °C 47.8 °F /  8.8 °C 30.15in /  1020.9hPa Calm   4mph /  6.4km/h 91% 0.00in /  0mm
03:39 50.3 °F /  10.2 °C 47.8 °F /  8.8 °C 30.15in /  1020.9hPa Calm   2mph /  3.2km/h 91% 0.00in /  0mm
03:44 50.3 °F /  10.2 °C 47.8 °F /  8.8 °C 30.15in /  1020.9hPa NNW 0.4mph /  0.6km/h 4mph /  6.4km/h 91% 0.00in /  0mm
03:49 50.2 °F /  10.1 °C 47.7 °F /  8.7 °C 30.16in /  1021.2hPa Calm     91% 0.00in /  0mm
03:54 50.1 °F /  10.1 °C 47.6 °F /  8.7 °C 30.16in /  1021.2hPa Calm     91% 0.00in /  0mm
03:59 50.1 °F /  10.1 °C 47.6 °F /  8.7 °C 30.15in /  1020.9hPa Calm     91% 0.00in /  0mm
04:04 50.1 °F /  10.1 °C 47.6 °F /  8.7 °C 30.16in /  1021.2hPa NNW 0.8mph /  1.3km/h 4mph /  6.4km/h 91% 0.00in /  0mm
04:09 50.1 °F /  10.1 °C 47.6 °F /  8.7 °C 30.16in /  1021.2hPa NNW 0.8mph /  1.3km/h 4mph /  6.4km/h 91% 0.00in /  0mm
04:14 50.1 °F /  10.1 °C 47.6 °F /  8.7 °C 30.17in /  1021.6hPa Calm   2mph /  3.2km/h 91% 0.00in /  0mm
04:19 50.1 °F /  10.1 °C 47.6 °F /  8.7 °C 30.17in /  1021.6hPa Calm     91% 0.00in /  0mm
04:24 50.1 °F /  10.1 °C 47.6 °F /  8.7 °C 30.16in /  1021.2hPa Calm     91% 0.00in /  0mm
04:29 50.1 °F /  10.1 °C 47.6 °F /  8.7 °C 30.17in /  1021.6hPa Calm   2mph /  3.2km/h 91% 0.00in /  0mm
04:34 50.1 °F /  10.1 °C 47.6 °F /  8.7 °C 30.16in /  1021.2hPa NNW 0.8mph /  1.3km/h 2mph /  3.2km/h 91% 0.00in /  0mm
04:39 50.1 °F /  10.1 °C 47.6 °F /  8.7 °C 30.17in /  1021.6hPa Calm   2mph /  3.2km/h 91% 0.00in /  0mm
04:44 50.1 °F /  10.1 °C 47.6 °F /  8.7 °C 30.17in /  1021.6hPa Calm     91% 0.00in /  0mm
04:49 50.1 °F /  10.1 °C 47.6 °F /  8.7 °C 30.17in /  1021.6hPa Calm   2mph /  3.2km/h 91% 0.00in /  0mm
04:54 50.1 °F /  10.1 °C 47.6 °F /  8.7 °C 30.18in /  1021.9hPa Calm   2mph /  3.2km/h 91% 0.00in /  0mm
04:59 50 °F /  10 °C 47.5 °F /  8.6 °C 30.18in /  1021.9hPa Calm     91% 0.00in /  0mm
05:04 50 °F /  10 °C 47.5 °F /  8.6 °C 30.18in /  1021.9hPa Calm     91% 0.00in /  0mm
05:09 49.8 °F /  9.9 °C 47.3 °F /  8.5 °C 30.18in /  1021.9hPa Calm     91% 0.00in /  0mm
05:14 49.7 °F /  9.8 °C 47.2 °F /  8.4 °C 30.19in /  1022.2hPa Calm     91% 0.00in /  0mm
05:19 49.6 °F /  9.8 °C 47.1 °F /  8.4 °C 30.19in /  1022.2hPa Calm     91% 0.00in /  0mm
05:24 49.6 °F /  9.8 °C 47.1 °F /  8.4 °C 30.19in /  1022.2hPa Calm     91% 0.00in /  0mm
05:29 49.5 °F /  9.7 °C 47 °F /  8.3 °C 30.18in /  1021.9hPa Calm     91% 0.00in /  0mm
05:34 49.5 °F /  9.7 °C 47 °F /  8.3 °C 30.19in /  1022.2hPa Calm     91% 0.00in /  0mm
05:39 49.4 °F /  9.7 °C 46.9 °F /  8.3 °C 30.19in /  1022.2hPa Calm     91% 0.00in /  0mm
05:44 49.3 °F /  9.6 °C 46.8 °F /  8.2 °C 30.19in /  1022.2hPa Calm     91% 0.00in /  0mm
05:49 49.3 °F /  9.6 °C 46.8 °F /  8.2 °C 30.19in /  1022.2hPa Calm     91% 0.00in /  0mm
05:54 49.2 °F /  9.6 °C 46.7 °F /  8.2 °C 30.19in /  1022.2hPa Calm     91% 0.00in /  0mm
05:59 49.1 °F /  9.5 °C 46.6 °F /  8.1 °C 30.19in /  1022.2hPa Calm     91% 0.00in /  0mm
06:04 49.1 °F /  9.5 °C 46.6 °F /  8.1 °C 30.19in /  1022.2hPa Calm     91% 0.00in /  0mm
06:09 49 °F /  9.4 °C 46.5 °F /  8.1 °C 30.19in /  1022.2hPa Calm     91% 0.00in /  0mm
06:14 49 °F /  9.4 °C 46.5 °F /  8.1 °C 30.19in /  1022.2hPa Calm     91% 0.00in /  0mm
06:19 48.9 °F /  9.4 °C 46.4 °F /  8 °C 30.20in /  1022.6hPa Calm     91% 0.00in /  0mm
06:24 48.8 °F /  9.3 °C 46.3 °F /  7.9 °C 30.20in /  1022.6hPa Calm     91% 0.00in /  0mm
06:29 48.7 °F /  9.3 °C 46.2 °F /  7.9 °C 30.20in /  1022.6hPa Calm     91% 0.00in /  0mm
06:34 48.7 °F /  9.3 °C 46.2 °F /  7.9 °C 30.21in /  1022.9hPa Calm     91% 0.00in /  0mm
06:39 48.8 °F /  9.3 °C 46.3 °F /  7.9 °C 30.21in /  1022.9hPa Calm     91% 0.00in /  0mm
06:44 48.9 °F /  9.4 °C 46.4 °F /  8 °C 30.21in /  1022.9hPa Calm     91% 0.00in /  0mm
06:49 49 °F /  9.4 °C 46.5 °F /  8.1 °C 30.21in /  1022.9hPa Calm     91% 0.00in /  0mm
06:54 49.1 °F /  9.5 °C 46.6 °F /  8.1 °C 30.21in /  1022.9hPa Calm     91% 0.00in /  0mm
07:09 49.6 °F /  9.8 °C 47.4 °F /  8.6 °C 30.22in /  1023.2hPa Calm     92% 0.00in /  0mm
07:14 49.7 °F /  9.8 °C 47.3 °F /  8.5 °C 30.22in /  1023.2hPa Calm     91.2% 0.00in /  0mm
07:19 49.9 °F /  9.9 °C 47.4 °F /  8.6 °C 30.22in /  1023.2hPa Calm     91% 0.00in /  0mm
07:24 50.1 °F /  10.1 °C 47.8 °F /  8.8 °C 30.23in /  1023.6hPa East 0.4mph /  0.6km/h 2mph /  3.2km/h 91.8% 0.00in /  0mm
07:29 50.2 °F /  10.1 °C 48 °F /  8.9 °C 30.23in /  1023.6hPa East 0.4mph /  0.6km/h 2mph /  3.2km/h 92% 0.00in /  0mm
07:34 50.4 °F /  10.2 °C 48 °F /  8.9 °C 30.23in /  1023.6hPa Calm   2mph /  3.2km/h 91.6% 0.00in /  0mm
07:39 50.6 °F /  10.3 °C 48.1 °F /  8.9 °C 30.23in /  1023.6hPa Calm   2mph /  3.2km/h 91% 0.00in /  0mm
07:44 50.8 °F /  10.4 °C 48.5 °F /  9.2 °C 30.23in /  1023.6hPa SSW 0.4mph /  0.6km/h 2mph /  3.2km/h 91.8% 0.00in /  0mm
07:49 51.1 °F /  10.6 °C 48.7 °F /  9.3 °C 30.23in /  1023.6hPa Calm     91.6% 0.00in /  0mm
07:54 51.7 °F /  10.9 °C 49.4 °F /  9.7 °C 30.23in /  1023.6hPa SSW 0.4mph /  0.6km/h 2mph /  3.2km/h 91.8% 0.00in /  0mm
07:59 52.2 °F /  11.2 °C 49.9 °F /  9.9 °C 30.23in /  1023.6hPa NNW 0.4mph /  0.6km/h 4mph /  6.4km/h 92% 0.00in /  0mm
08:04 52.7 °F /  11.5 °C 50.4 °F /  10.2 °C 30.23in /  1023.6hPa Calm   4mph /  6.4km/h 92% 0.00in /  0mm
08:09 53.3 °F /  11.8 °C 51 °F /  10.6 °C 30.23in /  1023.6hPa Calm   4mph /  6.4km/h 92% 0.00in /  0mm
08:14 53.9 °F /  12.2 °C 51.6 °F /  10.9 °C 30.23in /  1023.6hPa SSW 0.8mph /  1.3km/h 4mph /  6.4km/h 92% 0.00in /  0mm
08:19 54.4 °F /  12.4 °C 52 °F /  11.1 °C 30.23in /  1023.6hPa SSW 0.4mph /  0.6km/h 4mph /  6.4km/h 91.6% 0.00in /  0mm
08:24 54.7 °F /  12.6 °C 52.1 °F /  11.2 °C 30.23in /  1023.6hPa SSW 0.8mph /  1.3km/h 4mph /  6.4km/h 91% 0.00in /  0mm
08:29 55 °F /  12.8 °C 52.4 °F /  11.3 °C 30.23in /  1023.6hPa Calm   2mph /  3.2km/h 91% 0.00in /  0mm
08:34 55.4 °F /  13 °C 52.8 °F /  11.6 °C 30.23in /  1023.6hPa SSW 1.6mph /  2.6km/h 4mph /  6.4km/h 91% 0.00in /  0mm
08:39 55.9 °F /  13.3 °C 53.3 °F /  11.8 °C 30.23in /  1023.6hPa SSW 1.2mph /  1.9km/h 4mph /  6.4km/h 91% 0.00in /  0mm
08:44 56.7 °F /  13.7 °C 54.1 °F /  12.3 °C 30.23in /  1023.6hPa SSW 2.4mph /  3.9km/h 4mph /  6.4km/h 91% 0.00in /  0mm
08:49 57.4 °F /  14.1 °C 54.5 °F /  12.5 °C 30.23in /  1023.6hPa SSW 3.2mph /  5.1km/h 7mph /  11.3km/h 90% 0.00in /  0mm
08:54 58 °F /  14.4 °C 54.8 °F /  12.7 °C 30.22in /  1023.2hPa Calm   7mph /  11.3km/h 89% 0.00in /  0mm
08:59 58.6 °F /  14.8 °C 55.4 °F /  13 °C 30.22in /  1023.2hPa Calm   2mph /  3.2km/h 89% 0.00in /  0mm
09:04 59.6 °F /  15.3 °C 55.9 °F /  13.3 °C 30.22in /  1023.2hPa SSE 0.4mph /  0.6km/h 4mph /  6.4km/h 87.6% 0.00in /  0mm
09:09 60.9 °F /  16.1 °C 56.3 °F /  13.5 °C 30.22in /  1023.2hPa SSE 2.4mph /  3.9km/h 5mph /  8km/h 84.8% 0.00in /  0mm
09:14 61.7 °F /  16.5 °C 56.5 °F /  13.6 °C 30.23in /  1023.6hPa SW 1.6mph /  2.6km/h 5mph /  8km/h 82.8% 0.00in /  0mm
09:19 62.4 °F /  16.9 °C 57.1 °F /  13.9 °C 30.22in /  1023.2hPa ESE 1.2mph /  1.9km/h 4mph /  6.4km/h 82.8% 0.00in /  0mm
09:24 63.2 °F /  17.3 °C 57.4 °F /  14.1 °C 30.22in /  1023.2hPa ESE 0.4mph /  0.6km/h 4mph /  6.4km/h 81.4% 0.00in /  0mm
09:29 63.6 °F /  17.6 °C 57.4 °F /  14.1 °C 30.22in /  1023.2hPa SE 1.6mph /  2.6km/h 4mph /  6.4km/h 80.4% 0.00in /  0mm
09:34 63.7 °F /  17.6 °C 56.9 °F /  13.8 °C 30.22in /  1023.2hPa SW 1.8mph /  2.9km/h 5mph /  8km/h 78.4% 0.00in /  0mm
09:39 64.1 °F /  17.8 °C 56.5 °F /  13.6 °C 30.22in /  1023.2hPa SW 3mph /  4.8km/h 5mph /  8km/h 76.4% 0.00in /  0mm
09:44 64.6 °F /  18.1 °C 56.8 °F /  13.8 °C 30.22in /  1023.2hPa SW 1.6mph /  2.6km/h 4mph /  6.4km/h 75.8% 0.00in /  0mm
09:49 65.1 °F /  18.4 °C 56.7 °F /  13.7 °C 30.22in /  1023.2hPa NW 1.2mph /  1.9km/h 5mph /  8km/h 74.2% 0.00in /  0mm
09:54 65.7 °F /  18.7 °C 56.7 °F /  13.7 °C 30.22in /  1023.2hPa NNW 1.6mph /  2.6km/h 5mph /  8km/h 72.8% 0.00in /  0mm
09:59 66.1 °F /  18.9 °C 55.3 °F /  12.9 °C 30.22in /  1023.2hPa SSW 3mph /  4.8km/h 7mph /  11.3km/h 68.2% 0.00in /  0mm
10:04 66.9 °F /  19.4 °C 54.9 °F /  12.7 °C 30.22in /  1023.2hPa SSW 2mph /  3.2km/h 7mph /  11.3km/h 65.4% 0.00in /  0mm
10:09 67.5 °F /  19.7 °C 55.1 °F /  12.8 °C 30.22in /  1023.2hPa SW 2mph /  3.2km/h 7mph /  11.3km/h 64.4% 0.00in /  0mm
10:14 68.1 °F /  20.1 °C 55 °F /  12.8 °C 30.22in /  1023.2hPa SSW 2.6mph /  4.2km/h 7mph /  11.3km/h 63% 0.00in /  0mm
10:19 68.7 °F /  20.4 °C 54.4 °F /  12.4 °C 30.21in /  1022.9hPa SSW 4.6mph /  7.4km/h 10mph /  16.1km/h 60.4% 0.00in /  0mm
10:24 69.2 °F /  20.7 °C 54 °F /  12.2 °C 30.21in /  1022.9hPa SSW 4.6mph /  7.4km/h 9mph /  14.5km/h 58.4% 0.00in /  0mm
10:29 69.7 °F /  20.9 °C 53.9 °F /  12.2 °C 30.21in /  1022.9hPa South 4.8mph /  7.7km/h 9mph /  14.5km/h 57.2% 0.00in /  0mm
10:34 70.1 °F /  21.2 °C 53.8 °F /  12.1 °C 30.21in /  1022.9hPa SSW 1.6mph /  2.6km/h 9mph /  14.5km/h 56.2% 0.00in /  0mm
10:39 70.4 °F /  21.3 °C 54 °F /  12.2 °C 30.21in /  1022.9hPa WSW 2.4mph /  3.9km/h 5mph /  8km/h 56.2% 0.00in /  0mm
10:44 70.6 °F /  21.4 °C 53.5 °F /  11.9 °C 30.21in /  1022.9hPa SSW 4.8mph /  7.7km/h 9mph /  14.5km/h 54.8% 0.00in /  0mm
10:49 70.6 °F /  21.4 °C 53.1 °F /  11.7 °C 30.21in /  1022.9hPa SSW 2.8mph /  4.5km/h 9mph /  14.5km/h 54% 0.00in /  0mm
10:54 71.4 °F /  21.9 °C 55 °F /  12.8 °C 30.21in /  1022.9hPa SSW 3mph /  4.8km/h 5mph /  8km/h 56.4% 0.00in /  0mm
10:59 72.3 °F /  22.4 °C 54.1 °F /  12.3 °C 30.21in /  1022.9hPa South 3.6mph /  5.8km/h 7mph /  11.3km/h 53% 0.00in /  0mm
11:04 72.8 °F /  22.7 °C 54.8 °F /  12.7 °C 30.21in /  1022.9hPa SSW 2.6mph /  4.2km/h 7mph /  11.3km/h 53.4% 0.00in /  0mm
11:09 73.3 °F /  22.9 °C 53 °F /  11.7 °C 30.21in /  1022.9hPa SW 3.8mph /  6.1km/h 7mph /  11.3km/h 49% 0.00in /  0mm
11:14 73.4 °F /  23 °C 52.9 °F /  11.6 °C 30.20in /  1022.6hPa WSW 4.4mph /  7.1km/h 12mph /  19.3km/h 48.6% 0.00in /  0mm
11:19 73.2 °F /  22.9 °C 53.1 °F /  11.7 °C 30.20in /  1022.6hPa WSW 4.4mph /  7.1km/h 12mph /  19.3km/h 49.4% 0.00in /  0mm
11:24 73.1 °F /  22.8 °C 52.7 °F /  11.5 °C 30.20in /  1022.6hPa SW 3.4mph /  5.5km/h 7mph /  11.3km/h 48.8% 0.00in /  0mm
11:29 73.3 °F /  22.9 °C 52.7 °F /  11.5 °C 30.20in /  1022.6hPa West 3.6mph /  5.8km/h 9mph /  14.5km/h 48.6% 0.00in /  0mm
11:34 73.6 °F /  23.1 °C 52 °F /  11.1 °C 30.20in /  1022.6hPa WNW 3.8mph /  6.1km/h 9mph /  14.5km/h 47% 0.00in /  0mm
11:39 73.8 °F /  23.2 °C 51.2 °F /  10.7 °C 30.20in /  1022.6hPa NW 5.2mph /  8.4km/h 9mph /  14.5km/h 45.2% 0.00in /  0mm
11:44 73.9 °F /  23.3 °C 50.8 °F /  10.4 °C 30.20in /  1022.6hPa West 3mph /  4.8km/h 9mph /  14.5km/h 44.4% 0.00in /  0mm
11:49 74.3 °F /  23.5 °C 51.7 °F /  10.9 °C 30.20in /  1022.6hPa SSW 4.8mph /  7.7km/h 9mph /  14.5km/h 45.2% 0.00in /  0mm
11:54 74.8 °F /  23.8 °C 51.7 °F /  10.9 °C 30.20in /  1022.6hPa West 5.4mph /  8.7km/h 10mph /  16.1km/h 44.4% 0.00in /  0mm
11:59 74.8 °F /  23.8 °C 51.4 °F /  10.8 °C 30.19in /  1022.2hPa NW 4.4mph /  7.1km/h 7mph /  11.3km/h 44% 0.00in /  0mm
12:04 74.9 °F /  23.8 °C 51.3 °F /  10.7 °C 30.19in /  1022.2hPa WSW 4.6mph /  7.4km/h 7mph /  11.3km/h 43.8% 0.00in /  0mm
12:09 75.2 °F /  24 °C 51.4 °F /  10.8 °C 30.19in /  1022.2hPa West 3.5mph /  5.6km/h 9mph /  14.5km/h 43.3% 0.00in /  0mm
12:14 75.3 °F /  24.1 °C 51.2 °F /  10.7 °C 30.19in /  1022.2hPa SW 3.8mph /  6.1km/h 10mph /  16.1km/h 42.8% 0.00in /  0mm
12:19 75.7 °F /  24.3 °C 52.5 °F /  11.4 °C 30.19in /  1022.2hPa WSW 3.2mph /  5.1km/h 7mph /  11.3km/h 44.6% 0.00in /  0mm
12:24 76 °F /  24.4 °C 52 °F /  11.1 °C 30.19in /  1022.2hPa WSW 6.2mph /  10km/h 10mph /  16.1km/h 43.2% 0.00in /  0mm
12:29 76.2 °F /  24.6 °C 52.8 °F /  11.6 °C 30.18in /  1021.9hPa WSW 3.2mph /  5.1km/h 7mph /  11.3km/h 44.2% 0.00in /  0mm
12:34 76.6 °F /  24.8 °C 53.3 °F /  11.8 °C 30.18in /  1021.9hPa West 6.4mph /  10.3km/h 10mph /  16.1km/h 44.4% 0.00in /  0mm
12:39 76.2 °F /  24.6 °C 51.5 °F /  10.8 °C 30.18in /  1021.9hPa WNW 3.8mph /  6.1km/h 10mph /  16.1km/h 42% 0.00in /  0mm
12:44 76.3 °F /  24.6 °C 54 °F /  12.2 °C 30.17in /  1021.6hPa West 3.6mph /  5.8km/h 7mph /  11.3km/h 46% 0.00in /  0mm
12:49 76.6 °F /  24.8 °C 53.3 °F /  11.8 °C 30.17in /  1021.6hPa NNW 3.4mph /  5.5km/h 7mph /  11.3km/h 44.4% 0.00in /  0mm
12:54 76.9 °F /  24.9 °C 52.9 °F /  11.6 °C 30.17in /  1021.6hPa WNW 3.8mph /  6.1km/h 9mph /  14.5km/h 43.4% 0.00in /  0mm
12:59 76.8 °F /  24.9 °C 51.4 °F /  10.8 °C 30.16in /  1021.2hPa NNW 4.4mph /  7.1km/h 9mph /  14.5km/h 41.2% 0.00in /  0mm
13:04 76.9 °F /  24.9 °C 52.4 °F /  11.3 °C 30.16in /  1021.2hPa SSW 3.6mph /  5.8km/h 9mph /  14.5km/h 42.6% 0.00in /  0mm
15:09 79.9 °F /  26.6 °C 50.6 °F /  10.3 °C 30.12in /  1019.9hPa WSW 4.5mph /  7.2km/h 16mph /  25.7km/h 36% 0.00in /  0mm
15:14 80.2 °F /  26.8 °C 51 °F /  10.6 °C 30.12in /  1019.9hPa East 2.8mph /  4.5km/h 12mph /  19.3km/h 36.2% 0.00in /  0mm
15:19 80.6 °F /  27 °C 53.1 °F /  11.7 °C 30.12in /  1019.9hPa NNW 3mph /  4.8km/h 12mph /  19.3km/h 38.6% 0.00in /  0mm
15:24 80.6 °F /  27 °C 50.4 °F /  10.2 °C 30.12in /  1019.9hPa WNW 6.2mph /  10km/h 21mph /  33.8km/h 35% 0.00in /  0mm
15:29 80.3 °F /  26.8 °C 49.2 °F /  9.6 °C 30.11in /  1019.5hPa WSW 6mph /  9.7km/h 14mph /  22.5km/h 33.8% 0.00in /  0mm
15:34 80.3 °F /  26.8 °C 49.3 °F /  9.6 °C 30.11in /  1019.5hPa WNW 6.2mph /  10km/h 12mph /  19.3km/h 34% 0.00in /  0mm
15:39 80.3 °F /  26.8 °C 50 °F /  10 °C 30.11in /  1019.5hPa West 4.2mph /  6.8km/h 9mph /  14.5km/h 34.8% 0.00in /  0mm
15:44 80.3 °F /  26.8 °C 48.5 °F /  9.2 °C 30.11in /  1019.5hPa WNW 7.4mph /  11.9km/h 14mph /  22.5km/h 33% 0.00in /  0mm
15:49 80.1 °F /  26.7 °C 47.9 °F /  8.8 °C 30.11in /  1019.5hPa WNW 6.4mph /  10.3km/h 10mph /  16.1km/h 32.4% 0.00in /  0mm
15:54 80.2 °F /  26.8 °C 47.6 °F /  8.7 °C 30.10in /  1019.2hPa WNW 5mph /  8km/h 10mph /  16.1km/h 32% 0.00in /  0mm
15:59 80.3 °F /  26.8 °C 46.6 °F /  8.1 °C 30.10in /  1019.2hPa WSW 8mph /  12.9km/h 18mph /  29km/h 30.8% 0.00in /  0mm
16:09 80 °F /  26.7 °C 44.2 °F /  6.8 °C 30.10in /  1019.2hPa NW 8.6mph /  13.8km/h 18mph /  29km/h 28.2% 0.00in /  0mm
16:14 79.9 °F /  26.6 °C 46.6 °F /  8.1 °C 30.10in /  1019.2hPa NW 6.6mph /  10.6km/h 16mph /  25.7km/h 31% 0.00in /  0mm
16:19 80.2 °F /  26.8 °C 47.5 °F /  8.6 °C 30.10in /  1019.2hPa West 5.2mph /  8.4km/h 10mph /  16.1km/h 31.8% 0.00in /  0mm
16:24 80.4 °F /  26.9 °C 47.7 °F /  8.7 °C 30.10in /  1019.2hPa WNW 6.2mph /  10km/h 12mph /  19.3km/h 31.8% 0.00in /  0mm
16:29 79.9 °F /  26.6 °C 47 °F /  8.3 °C 30.09in /  1018.8hPa WNW 6.2mph /  10km/h 14mph /  22.5km/h 31.6% 0.00in /  0mm
16:34 79.9 °F /  26.6 °C 47.2 °F /  8.4 °C 30.09in /  1018.8hPa WNW 6mph /  9.7km/h 12mph /  19.3km/h 31.8% 0.00in /  0mm
16:39 80.2 °F /  26.8 °C 47.8 °F /  8.8 °C 30.09in /  1018.8hPa WNW 6.2mph /  10km/h 12mph /  19.3km/h 32.2% 0.00in /  0mm
16:44 80.1 °F /  26.7 °C 47.1 °F /  8.4 °C 30.09in /  1018.8hPa WNW 6mph /  9.7km/h 14mph /  22.5km/h 31.4% 0.00in /  0mm
16:49 79.9 °F /  26.6 °C 48 °F /  8.9 °C 30.09in /  1018.8hPa WNW 6.6mph /  10.6km/h 14mph /  22.5km/h 32.8% 0.00in /  0mm
16:54 79.7 °F /  26.5 °C 48.2 °F /  9 °C 30.09in /  1018.8hPa West 7.8mph /  12.6km/h 14mph /  22.5km/h 33.2% 0.00in /  0mm
16:59 79.6 °F /  26.4 °C 48.1 °F /  8.9 °C 30.09in /  1018.8hPa WSW 7mph /  11.3km/h 18mph /  29km/h 33.2% 0.00in /  0mm
17:04 79.4 °F /  26.3 °C 48.6 °F /  9.2 °C 30.09in /  1018.8hPa West 4.8mph /  7.7km/h 21mph /  33.8km/h 34% 0.00in /  0mm
17:09 79.5 °F /  26.4 °C 49.1 °F /  9.5 °C 30.09in /  1018.8hPa West 5mph /  8km/h 10mph /  16.1km/h 34.6% 0.00in /  0mm
17:14 79.4 °F /  26.3 °C 48.3 °F /  9.1 °C 30.09in /  1018.8hPa West 6.2mph /  10km/h 18mph /  29km/h 33.6% 0.00in /  0mm
17:19 79.4 °F /  26.3 °C 48.8 °F /  9.3 °C 30.09in /  1018.8hPa NW 4.6mph /  7.4km/h 18mph /  29km/h 34.2% 0.00in /  0mm
17:24 79.8 °F /  26.6 °C 50.3 °F /  10.2 °C 30.09in /  1018.8hPa West 6mph /  9.7km/h 10mph /  16.1km/h 35.8% 0.00in /  0mm
17:29 79.9 °F /  26.6 °C 49.5 °F /  9.7 °C 30.09in /  1018.8hPa WNW 9mph /  14.5km/h 16mph /  25.7km/h 34.6% 0.00in /  0mm
17:34 79.6 °F /  26.4 °C 50.9 °F /  10.5 °C 30.09in /  1018.8hPa WSW 4.8mph /  7.7km/h 14mph /  22.5km/h 36.8% 0.00in /  0mm
17:39 79.3 °F /  26.3 °C 50.5 °F /  10.3 °C 30.09in /  1018.8hPa WNW 6.6mph /  10.6km/h 14mph /  22.5km/h 36.6% 0.00in /  0mm
17:44 79.1 °F /  26.2 °C 50.7 °F /  10.4 °C 30.09in /  1018.8hPa WNW 7.2mph /  11.6km/h 18mph /  29km/h 37.2% 0.00in /  0mm
17:49 79 °F /  26.1 °C 51 °F /  10.6 °C 30.09in /  1018.8hPa WNW 6mph /  9.7km/h 18mph /  29km/h 37.8% 0.00in /  0mm
17:54 78.9 °F /  26.1 °C 51.5 °F /  10.8 °C 30.09in /  1018.8hPa West 5.8mph /  9.3km/h 12mph /  19.3km/h 38.6% 0.00in /  0mm
17:59 78.9 °F /  26.1 °C 51.7 °F /  10.9 °C 30.09in /  1018.8hPa WNW 5.4mph /  8.7km/h 10mph /  16.1km/h 38.8% 0.00in /  0mm
18:04 78.9 °F /  26.1 °C 52.2 °F /  11.2 °C 30.09in /  1018.8hPa WSW 4.2mph /  6.8km/h 9mph /  14.5km/h 39.6% 0.00in /  0mm
18:09 78.7 °F /  25.9 °C 52.4 °F /  11.3 °C 30.09in /  1018.8hPa West 4.6mph /  7.4km/h 9mph /  14.5km/h 40.2% 0.00in /  0mm
18:14 78.3 °F /  25.7 °C 52.4 °F /  11.3 °C 30.09in /  1018.8hPa West 6mph /  9.7km/h 10mph /  16.1km/h 40.6% 0.00in /  0mm
18:19 78.1 °F /  25.6 °C 52.8 °F /  11.6 °C 30.09in /  1018.8hPa West 4.8mph /  7.7km/h 10mph /  16.1km/h 41.6% 0.00in /  0mm
18:24 77.9 °F /  25.5 °C 53.7 °F /  12.1 °C 30.09in /  1018.8hPa WNW 2mph /  3.2km/h 9mph /  14.5km/h 43.2% 0.00in /  0mm
18:29 77.7 °F /  25.4 °C 53.8 °F /  12.1 °C 30.09in /  1018.8hPa WNW 3.8mph /  6.1km/h 9mph /  14.5km/h 43.6% 0.00in /  0mm
18:34 77.5 °F /  25.3 °C 53.4 °F /  11.9 °C 30.09in /  1018.8hPa WNW 4mph /  6.4km/h 9mph /  14.5km/h 43.2% 0.00in /  0mm
18:39 77.4 °F /  25.2 °C 53.1 °F /  11.7 °C 30.09in /  1018.8hPa West 5.4mph /  8.7km/h 9mph /  14.5km/h 42.8% 0.00in /  0mm
18:44 77.4 °F /  25.2 °C 52.6 °F /  11.4 °C 30.09in /  1018.8hPa West 3.2mph /  5.1km/h 7mph /  11.3km/h 42.2% 0.00in /  0mm
18:49 77.6 °F /  25.3 °C 53.1 °F /  11.7 °C 30.09in /  1018.8hPa West 2.8mph /  4.5km/h 5mph /  8km/h 42.8% 0.00in /  0mm
18:54 77.7 °F /  25.4 °C 53.6 °F /  12 °C 30.09in /  1018.8hPa WNW 3.2mph /  5.1km/h 7mph /  11.3km/h 43.4% 0.00in /  0mm
18:59 77.5 °F /  25.3 °C 51.3 °F /  10.7 °C 30.09in /  1018.8hPa NW 5.6mph /  9km/h 10mph /  16.1km/h 40% 0.00in /  0mm
19:04 76.6 °F /  24.8 °C 49.8 °F /  9.9 °C 30.09in /  1018.8hPa WNW 6.2mph /  10km/h 12mph /  19.3km/h 39% 0.00in /  0mm
19:09 76.2 °F /  24.6 °C 47.3 °F /  8.5 °C 30.09in /  1018.8hPa WNW 3.8mph /  6.1km/h 12mph /  19.3km/h 36% 0.00in /  0mm
19:14 76.2 °F /  24.6 °C 47 °F /  8.3 °C 30.09in /  1018.8hPa West 5mph /  8km/h 12mph /  19.3km/h 35.6% 0.00in /  0mm
19:19 75.9 °F /  24.4 °C 47.8 °F /  8.8 °C 30.10in /  1019.2hPa WNW 4.8mph /  7.7km/h 14mph /  22.5km/h 37% 0.00in /  0mm
19:24 75.4 °F /  24.1 °C 47.1 °F /  8.4 °C 30.10in /  1019.2hPa NW 4.8mph /  7.7km/h 14mph /  22.5km/h 36.6% 0.00in /  0mm
Compliments of Weather Underground - 4 mb